sensor_id;sensor_type;location;lat;lon;timestamp;P1;durP1;ratioP1;P2;durP2;ratioP2
13234;SDS011;6683;48.506;9.050;2022-12-10T00:02:13;26.23;;;14.10;;
13234;SDS011;6683;48.506;9.050;2022-12-10T00:05:15;28.27;;;14.53;;
13234;SDS011;6683;48.506;9.050;2022-12-10T00:08:17;24.30;;;13.87;;
13234;SDS011;6683;48.506;9.050;2022-12-10T00:11:20;26.37;;;15.20;;
13234;SDS011;6683;48.506;9.050;2022-12-10T00:14:25;29.57;;;15.07;;
13234;SDS011;6683;48.506;9.050;2022-12-10T00:17:27;25.97;;;14.53;;
13234;SDS011;6683;48.506;9.050;2022-12-10T00:20:30;23.60;;;13.40;;
13234;SDS011;6683;48.506;9.050;2022-12-10T00:23:32;25.17;;;14.70;;
13234;SDS011;6683;48.506;9.050;2022-12-10T00:26:35;25.23;;;14.03;;
13234;SDS011;6683;48.506;9.050;2022-12-10T00:29:40;26.97;;;14.70;;
13234;SDS011;6683;48.506;9.050;2022-12-10T00:32:42;26.17;;;14.30;;
13234;SDS011;6683;48.506;9.050;2022-12-10T00:35:45;21.33;;;13.70;;
13234;SDS011;6683;48.506;9.050;2022-12-10T00:38:47;26.03;;;15.73;;
13234;SDS011;6683;48.506;9.050;2022-12-10T00:41:50;28.03;;;15.50;;
13234;SDS011;6683;48.506;9.050;2022-12-10T00:44:53;25.43;;;14.00;;
13234;SDS011;6683;48.506;9.050;2022-12-10T00:47:56;24.93;;;15.27;;
13234;SDS011;6683;48.506;9.050;2022-12-10T00:50:58;24.27;;;13.97;;
13234;SDS011;6683;48.506;9.050;2022-12-10T00:54:02;22.93;;;14.23;;
13234;SDS011;6683;48.506;9.050;2022-12-10T00:57:05;26.43;;;15.13;;
13234;SDS011;6683;48.506;9.050;2022-12-10T01:00:09;26.63;;;15.43;;
13234;SDS011;6683;48.506;9.050;2022-12-10T01:03:13;23.47;;;13.20;;
13234;SDS011;6683;48.506;9.050;2022-12-10T01:06:17;24.73;;;13.90;;
13234;SDS011;6683;48.506;9.050;2022-12-10T01:09:23;24.83;;;14.27;;
13234;SDS011;6683;48.506;9.050;2022-12-10T01:12:27;22.47;;;12.80;;
13234;SDS011;6683;48.506;9.050;2022-12-10T01:15:30;23.57;;;14.50;;
13234;SDS011;6683;48.506;9.050;2022-12-10T01:18:37;21.13;;;13.53;;
13234;SDS011;6683;48.506;9.050;2022-12-10T01:21:40;23.27;;;14.00;;
13234;SDS011;6683;48.506;9.050;2022-12-10T01:24:43;22.30;;;13.77;;
13234;SDS011;6683;48.506;9.050;2022-12-10T01:27:45;23.67;;;13.57;;
13234;SDS011;6683;48.506;9.050;2022-12-10T01:30:49;21.73;;;12.57;;
13234;SDS011;6683;48.506;9.050;2022-12-10T01:33:51;23.07;;;13.70;;
13234;SDS011;6683;48.506;9.050;2022-12-10T01:36:54;25.23;;;13.60;;
13234;SDS011;6683;48.506;9.050;2022-12-10T01:39:56;21.17;;;13.37;;
13234;SDS011;6683;48.506;9.050;2022-12-10T01:42:58;22.70;;;13.03;;
13234;SDS011;6683;48.506;9.050;2022-12-10T01:46:02;23.83;;;14.53;;
13234;SDS011;6683;48.506;9.050;2022-12-10T01:49:05;24.87;;;15.33;;
13234;SDS011;6683;48.506;9.050;2022-12-10T01:52:10;26.43;;;14.43;;
13234;SDS011;6683;48.506;9.050;2022-12-10T01:58:48;24.67;;;14.63;;
13234;SDS011;6683;48.506;9.050;2022-12-10T02:02:05;27.07;;;14.60;;
13234;SDS011;6683;48.506;9.050;2022-12-10T02:05:17;24.43;;;14.13;;
13234;SDS011;6683;48.506;9.050;2022-12-10T02:08:31;24.90;;;14.53;;
13234;SDS011;6683;48.506;9.050;2022-12-10T02:11:42;25.03;;;14.73;;
13234;SDS011;6683;48.506;9.050;2022-12-10T02:14:54;24.23;;;13.93;;
13234;SDS011;6683;48.506;9.050;2022-12-10T02:18:03;24.83;;;14.83;;
13234;SDS011;6683;48.506;9.050;2022-12-10T02:21:12;26.67;;;14.30;;
13234;SDS011;6683;48.506;9.050;2022-12-10T02:24:21;28.43;;;14.80;;
13234;SDS011;6683;48.506;9.050;2022-12-10T02:27:32;29.63;;;15.27;;
13234;SDS011;6683;48.506;9.050;2022-12-10T02:30:43;27.57;;;15.80;;
13234;SDS011;6683;48.506;9.050;2022-12-10T02:33:48;27.00;;;14.60;;
13234;SDS011;6683;48.506;9.050;2022-12-10T02:36:56;24.93;;;13.93;;
13234;SDS011;6683;48.506;9.050;2022-12-10T02:40:05;28.90;;;15.13;;
13234;SDS011;6683;48.506;9.050;2022-12-10T02:43:12;27.03;;;15.77;;
13234;SDS011;6683;48.506;9.050;2022-12-10T02:46:16;25.33;;;15.47;;
13234;SDS011;6683;48.506;9.050;2022-12-10T02:49:19;26.60;;;15.00;;
13234;SDS011;6683;48.506;9.050;2022-12-10T02:52:23;26.03;;;15.63;;
13234;SDS011;6683;48.506;9.050;2022-12-10T02:55:26;23.00;;;14.10;;
13234;SDS011;6683;48.506;9.050;2022-12-10T02:58:32;27.43;;;14.27;;
13234;SDS011;6683;48.506;9.050;2022-12-10T03:01:49;27.93;;;13.90;;
13234;SDS011;6683;48.506;9.050;2022-12-10T03:05:04;25.60;;;15.77;;
13234;SDS011;6683;48.506;9.050;2022-12-10T03:08:16;25.27;;;14.90;;
13234;SDS011;6683;48.506;9.050;2022-12-10T03:11:22;25.30;;;14.63;;
13234;SDS011;6683;48.506;9.050;2022-12-10T03:14:27;28.47;;;15.30;;
13234;SDS011;6683;48.506;9.050;2022-12-10T03:17:33;29.00;;;15.70;;
13234;SDS011;6683;48.506;9.050;2022-12-10T03:20:38;30.20;;;17.13;;
13234;SDS011;6683;48.506;9.050;2022-12-10T03:23:47;29.27;;;17.07;;
13234;SDS011;6683;48.506;9.050;2022-12-10T03:26:51;24.27;;;15.83;;
13234;SDS011;6683;48.506;9.050;2022-12-10T03:29:54;26.27;;;16.63;;
13234;SDS011;6683;48.506;9.050;2022-12-10T03:33:01;26.90;;;15.13;;
13234;SDS011;6683;48.506;9.050;2022-12-10T03:36:04;25.20;;;15.97;;
13234;SDS011;6683;48.506;9.050;2022-12-10T03:39:08;26.00;;;14.93;;
13234;SDS011;6683;48.506;9.050;2022-12-10T03:42:12;23.53;;;14.27;;
13234;SDS011;6683;48.506;9.050;2022-12-10T03:45:14;23.67;;;14.37;;
13234;SDS011;6683;48.506;9.050;2022-12-10T03:48:18;27.40;;;16.03;;
13234;SDS011;6683;48.506;9.050;2022-12-10T03:51:21;22.53;;;15.03;;
13234;SDS011;6683;48.506;9.050;2022-12-10T03:54:24;24.40;;;14.67;;
13234;SDS011;6683;48.506;9.050;2022-12-10T03:57:26;23.43;;;14.50;;
13234;SDS011;6683;48.506;9.050;2022-12-10T04:00:28;24.83;;;15.87;;
13234;SDS011;6683;48.506;9.050;2022-12-10T04:03:35;25.90;;;14.87;;
13234;SDS011;6683;48.506;9.050;2022-12-10T04:06:38;22.63;;;14.97;;
13234;SDS011;6683;48.506;9.050;2022-12-10T04:09:42;26.77;;;14.93;;
13234;SDS011;6683;48.506;9.050;2022-12-10T04:12:44;23.57;;;14.07;;
13234;SDS011;6683;48.506;9.050;2022-12-10T04:16:07;23.77;;;13.63;;
13234;SDS011;6683;48.506;9.050;2022-12-10T04:19:28;24.10;;;14.40;;
13234;SDS011;6683;48.506;9.050;2022-12-10T04:22:31;22.30;;;13.27;;
13234;SDS011;6683;48.506;9.050;2022-12-10T04:25:50;23.73;;;13.80;;
13234;SDS011;6683;48.506;9.050;2022-12-10T04:29:09;23.33;;;14.03;;
13234;SDS011;6683;48.506;9.050;2022-12-10T04:32:12;27.53;;;15.13;;
13234;SDS011;6683;48.506;9.050;2022-12-10T04:35:16;24.13;;;14.10;;
13234;SDS011;6683;48.506;9.050;2022-12-10T04:38:18;22.27;;;14.03;;
13234;SDS011;6683;48.506;9.050;2022-12-10T04:41:21;25.83;;;14.47;;
13234;SDS011;6683;48.506;9.050;2022-12-10T04:44:23;30.03;;;15.77;;
13234;SDS011;6683;48.506;9.050;2022-12-10T04:47:26;27.47;;;15.37;;
13234;SDS011;6683;48.506;9.050;2022-12-10T04:50:29;24.77;;;14.73;;
13234;SDS011;6683;48.506;9.050;2022-12-10T04:53:31;26.90;;;15.37;;
13234;SDS011;6683;48.506;9.050;2022-12-10T04:56:34;28.63;;;15.23;;
13234;SDS011;6683;48.506;9.050;2022-12-10T04:59:37;28.97;;;15.17;;
13234;SDS011;6683;48.506;9.050;2022-12-10T05:02:39;27.57;;;15.27;;
13234;SDS011;6683;48.506;9.050;2022-12-10T05:05:42;26.27;;;14.40;;
13234;SDS011;6683;48.506;9.050;2022-12-10T05:08:45;24.53;;;15.03;;
13234;SDS011;6683;48.506;9.050;2022-12-10T05:11:48;27.87;;;14.97;;
13234;SDS011;6683;48.506;9.050;2022-12-10T05:14:50;27.37;;;15.13;;
13234;SDS011;6683;48.506;9.050;2022-12-10T05:17:52;25.60;;;15.30;;
13234;SDS011;6683;48.506;9.050;2022-12-10T05:20:59;25.60;;;15.00;;
13234;SDS011;6683;48.506;9.050;2022-12-10T05:24:01;27.20;;;15.03;;
13234;SDS011;6683;48.506;9.050;2022-12-10T05:27:03;23.87;;;14.43;;
13234;SDS011;6683;48.506;9.050;2022-12-10T05:30:06;25.13;;;15.83;;
13234;SDS011;6683;48.506;9.050;2022-12-10T05:33:10;28.13;;;15.77;;
13234;SDS011;6683;48.506;9.050;2022-12-10T05:36:15;24.27;;;15.33;;
13234;SDS011;6683;48.506;9.050;2022-12-10T05:39:19;28.00;;;15.77;;
13234;SDS011;6683;48.506;9.050;2022-12-10T05:42:22;25.90;;;14.97;;
13234;SDS011;6683;48.506;9.050;2022-12-10T05:45:24;27.70;;;14.83;;
13234;SDS011;6683;48.506;9.050;2022-12-10T05:48:27;23.67;;;14.47;;
13234;SDS011;6683;48.506;9.050;2022-12-10T05:51:31;28.83;;;15.50;;
13234;SDS011;6683;48.506;9.050;2022-12-10T05:54:37;24.10;;;14.07;;
13234;SDS011;6683;48.506;9.050;2022-12-10T05:57:39;28.23;;;13.87;;
13234;SDS011;6683;48.506;9.050;2022-12-10T06:00:41;24.17;;;14.97;;
13234;SDS011;6683;48.506;9.050;2022-12-10T06:03:44;23.80;;;14.53;;
13234;SDS011;6683;48.506;9.050;2022-12-10T06:06:48;23.40;;;14.43;;
13234;SDS011;6683;48.506;9.050;2022-12-10T06:09:50;22.17;;;15.00;;
13234;SDS011;6683;48.506;9.050;2022-12-10T06:12:52;22.07;;;13.90;;
13234;SDS011;6683;48.506;9.050;2022-12-10T06:15:55;21.60;;;14.53;;
13234;SDS011;6683;48.506;9.050;2022-12-10T06:18:57;18.90;;;13.17;;
13234;SDS011;6683;48.506;9.050;2022-12-10T06:22:01;20.10;;;14.43;;
13234;SDS011;6683;48.506;9.050;2022-12-10T06:25:03;19.17;;;13.20;;
13234;SDS011;6683;48.506;9.050;2022-12-10T06:28:06;22.07;;;13.77;;
13234;SDS011;6683;48.506;9.050;2022-12-10T06:31:09;20.30;;;13.67;;
13234;SDS011;6683;48.506;9.050;2022-12-10T06:34:11;18.97;;;13.13;;
13234;SDS011;6683;48.506;9.050;2022-12-10T06:37:15;20.87;;;13.30;;
13234;SDS011;6683;48.506;9.050;2022-12-10T06:40:17;21.33;;;14.03;;
13234;SDS011;6683;48.506;9.050;2022-12-10T06:43:19;21.33;;;14.03;;
13234;SDS011;6683;48.506;9.050;2022-12-10T06:46:22;18.73;;;12.97;;
13234;SDS011;6683;48.506;9.050;2022-12-10T06:49:24;19.13;;;12.97;;
13234;SDS011;6683;48.506;9.050;2022-12-10T06:52:28;21.90;;;13.87;;
13234;SDS011;6683;48.506;9.050;2022-12-10T06:55:30;20.40;;;12.77;;
13234;SDS011;6683;48.506;9.050;2022-12-10T06:58:33;20.90;;;14.03;;
13234;SDS011;6683;48.506;9.050;2022-12-10T07:01:37;18.60;;;13.53;;
13234;SDS011;6683;48.506;9.050;2022-12-10T07:04:39;17.80;;;13.20;;
13234;SDS011;6683;48.506;9.050;2022-12-10T07:07:43;18.43;;;13.47;;
13234;SDS011;6683;48.506;9.050;2022-12-10T07:10:46;20.13;;;13.60;;
13234;SDS011;6683;48.506;9.050;2022-12-10T07:13:48;22.20;;;12.83;;
13234;SDS011;6683;48.506;9.050;2022-12-10T07:16:50;21.50;;;13.70;;
13234;SDS011;6683;48.506;9.050;2022-12-10T07:19:53;18.60;;;12.53;;
13234;SDS011;6683;48.506;9.050;2022-12-10T07:22:56;17.93;;;12.67;;
13234;SDS011;6683;48.506;9.050;2022-12-10T07:25:58;21.33;;;13.80;;
13234;SDS011;6683;48.506;9.050;2022-12-10T07:29:02;19.73;;;12.83;;
13234;SDS011;6683;48.506;9.050;2022-12-10T07:32:06;21.47;;;14.60;;
13234;SDS011;6683;48.506;9.050;2022-12-10T07:35:08;17.77;;;12.70;;
13234;SDS011;6683;48.506;9.050;2022-12-10T07:38:11;18.13;;;13.17;;
13234;SDS011;6683;48.506;9.050;2022-12-10T07:41:14;19.27;;;13.10;;
13234;SDS011;6683;48.506;9.050;2022-12-10T07:44:17;18.63;;;13.83;;
13234;SDS011;6683;48.506;9.050;2022-12-10T07:47:21;20.47;;;13.27;;
13234;SDS011;6683;48.506;9.050;2022-12-10T07:50:23;16.80;;;12.73;;
13234;SDS011;6683;48.506;9.050;2022-12-10T07:53:28;18.87;;;13.37;;
13234;SDS011;6683;48.506;9.050;2022-12-10T07:56:31;18.87;;;12.37;;
13234;SDS011;6683;48.506;9.050;2022-12-10T07:59:33;16.63;;;12.70;;
13234;SDS011;6683;48.506;9.050;2022-12-10T08:02:35;17.10;;;12.47;;
13234;SDS011;6683;48.506;9.050;2022-12-10T08:05:37;16.70;;;12.47;;
13234;SDS011;6683;48.506;9.050;2022-12-10T08:08:42;18.17;;;12.53;;
13234;SDS011;6683;48.506;9.050;2022-12-10T08:11:45;17.83;;;12.40;;
13234;SDS011;6683;48.506;9.050;2022-12-10T08:14:48;18.83;;;13.60;;
13234;SDS011;6683;48.506;9.050;2022-12-10T08:17:50;19.07;;;13.13;;
13234;SDS011;6683;48.506;9.050;2022-12-10T08:20:52;18.23;;;12.37;;
13234;SDS011;6683;48.506;9.050;2022-12-10T08:23:56;19.80;;;12.97;;
13234;SDS011;6683;48.506;9.050;2022-12-10T08:27:00;18.03;;;13.00;;
13234;SDS011;6683;48.506;9.050;2022-12-10T08:30:03;17.60;;;12.60;;
13234;SDS011;6683;48.506;9.050;2022-12-10T08:33:06;17.87;;;13.20;;
13234;SDS011;6683;48.506;9.050;2022-12-10T08:36:10;18.73;;;13.67;;
13234;SDS011;6683;48.506;9.050;2022-12-10T08:39:16;18.80;;;14.33;;
13234;SDS011;6683;48.506;9.050;2022-12-10T08:42:18;18.40;;;13.57;;
13234;SDS011;6683;48.506;9.050;2022-12-10T08:45:21;20.30;;;14.17;;
13234;SDS011;6683;48.506;9.050;2022-12-10T08:48:23;20.03;;;14.47;;
13234;SDS011;6683;48.506;9.050;2022-12-10T08:51:26;18.53;;;13.67;;
13234;SDS011;6683;48.506;9.050;2022-12-10T08:54:29;18.27;;;12.83;;
13234;SDS011;6683;48.506;9.050;2022-12-10T08:57:32;18.90;;;12.70;;
13234;SDS011;6683;48.506;9.050;2022-12-10T09:00:34;18.00;;;13.00;;
13234;SDS011;6683;48.506;9.050;2022-12-10T09:03:37;17.67;;;12.87;;
13234;SDS011;6683;48.506;9.050;2022-12-10T09:06:39;19.43;;;13.13;;
13234;SDS011;6683;48.506;9.050;2022-12-10T09:09:43;19.07;;;13.40;;
13234;SDS011;6683;48.506;9.050;2022-12-10T09:12:45;18.27;;;12.60;;
13234;SDS011;6683;48.506;9.050;2022-12-10T09:15:50;19.63;;;13.33;;
13234;SDS011;6683;48.506;9.050;2022-12-10T09:18:53;18.67;;;13.03;;
13234;SDS011;6683;48.506;9.050;2022-12-10T09:21:55;19.03;;;12.70;;
13234;SDS011;6683;48.506;9.050;2022-12-10T09:24:59;19.07;;;13.47;;
13234;SDS011;6683;48.506;9.050;2022-12-10T09:28:01;16.20;;;11.80;;
13234;SDS011;6683;48.506;9.050;2022-12-10T09:31:04;16.73;;;12.23;;
13234;SDS011;6683;48.506;9.050;2022-12-10T09:34:07;18.27;;;12.40;;
13234;SDS011;6683;48.506;9.050;2022-12-10T09:37:10;16.20;;;12.30;;
13234;SDS011;6683;48.506;9.050;2022-12-10T09:40:15;16.77;;;12.53;;
13234;SDS011;6683;48.506;9.050;2022-12-10T09:43:19;19.20;;;13.50;;
13234;SDS011;6683;48.506;9.050;2022-12-10T09:46:37;19.87;;;13.97;;
13234;SDS011;6683;48.506;9.050;2022-12-10T09:49:52;18.70;;;13.20;;
13234;SDS011;6683;48.506;9.050;2022-12-10T09:53:02;18.57;;;13.13;;
13234;SDS011;6683;48.506;9.050;2022-12-10T09:56:13;18.73;;;12.80;;
13234;SDS011;6683;48.506;9.050;2022-12-10T09:59:23;18.07;;;13.30;;
13234;SDS011;6683;48.506;9.050;2022-12-10T10:02:31;18.03;;;13.17;;
13234;SDS011;6683;48.506;9.050;2022-12-10T10:05:34;18.60;;;13.27;;
13234;SDS011;6683;48.506;9.050;2022-12-10T10:08:41;18.23;;;13.30;;
13234;SDS011;6683;48.506;9.050;2022-12-10T10:11:48;18.60;;;13.53;;
13234;SDS011;6683;48.506;9.050;2022-12-10T10:14:51;15.23;;;12.20;;
13234;SDS011;6683;48.506;9.050;2022-12-10T10:17:53;20.93;;;13.47;;
13234;SDS011;6683;48.506;9.050;2022-12-10T10:20:59;18.83;;;13.57;;
13234;SDS011;6683;48.506;9.050;2022-12-10T10:24:03;17.83;;;12.53;;
13234;SDS011;6683;48.506;9.050;2022-12-10T10:27:13;15.63;;;12.03;;
13234;SDS011;6683;48.506;9.050;2022-12-10T10:30:18;17.23;;;12.13;;
13234;SDS011;6683;48.506;9.050;2022-12-10T10:33:23;20.57;;;13.13;;
13234;SDS011;6683;48.506;9.050;2022-12-10T10:36:26;17.83;;;12.93;;
13234;SDS011;6683;48.506;9.050;2022-12-10T10:39:30;19.30;;;14.27;;
13234;SDS011;6683;48.506;9.050;2022-12-10T10:42:36;18.97;;;13.60;;
13234;SDS011;6683;48.506;9.050;2022-12-10T10:45:41;14.67;;;11.97;;
13234;SDS011;6683;48.506;9.050;2022-12-10T10:48:48;16.80;;;11.57;;
13234;SDS011;6683;48.506;9.050;2022-12-10T10:51:51;17.17;;;11.47;;
13234;SDS011;6683;48.506;9.050;2022-12-10T10:54:56;15.70;;;11.60;;
13234;SDS011;6683;48.506;9.050;2022-12-10T10:57:59;15.63;;;12.00;;
13234;SDS011;6683;48.506;9.050;2022-12-10T11:01:03;16.27;;;12.10;;
13234;SDS011;6683;48.506;9.050;2022-12-10T11:04:08;15.43;;;11.90;;
13234;SDS011;6683;48.506;9.050;2022-12-10T11:07:13;15.70;;;12.13;;
13234;SDS011;6683;48.506;9.050;2022-12-10T11:10:23;16.57;;;11.90;;
13234;SDS011;6683;48.506;9.050;2022-12-10T11:13:29;15.00;;;11.77;;
13234;SDS011;6683;48.506;9.050;2022-12-10T11:16:33;16.20;;;12.10;;
13234;SDS011;6683;48.506;9.050;2022-12-10T11:19:36;17.40;;;12.67;;
13234;SDS011;6683;48.506;9.050;2022-12-10T11:22:54;17.23;;;12.53;;
13234;SDS011;6683;48.506;9.050;2022-12-10T11:26:02;14.77;;;11.43;;
13234;SDS011;6683;48.506;9.050;2022-12-10T11:29:41;18.90;;;13.27;;
13234;SDS011;6683;48.506;9.050;2022-12-10T11:32:58;16.73;;;12.63;;
13234;SDS011;6683;48.506;9.050;2022-12-10T11:36:17;16.10;;;11.43;;
13234;SDS011;6683;48.506;9.050;2022-12-10T11:39:45;20.17;;;13.00;;
13234;SDS011;6683;48.506;9.050;2022-12-10T11:43:21;14.80;;;11.27;;
13234;SDS011;6683;48.506;9.050;2022-12-10T11:46:54;16.03;;;11.17;;
13234;SDS011;6683;48.506;9.050;2022-12-10T11:50:23;16.47;;;12.87;;
13234;SDS011;6683;48.506;9.050;2022-12-10T11:53:34;14.90;;;11.03;;
13234;SDS011;6683;48.506;9.050;2022-12-10T11:56:50;15.70;;;11.37;;
13234;SDS011;6683;48.506;9.050;2022-12-10T12:00:03;15.70;;;12.03;;
13234;SDS011;6683;48.506;9.050;2022-12-10T12:03:34;15.60;;;11.30;;
13234;SDS011;6683;48.506;9.050;2022-12-10T12:06:55;15.27;;;10.30;;
13234;SDS011;6683;48.506;9.050;2022-12-10T12:10:23;13.70;;;10.67;;
13234;SDS011;6683;48.506;9.050;2022-12-10T12:13:47;12.40;;;9.57;;
13234;SDS011;6683;48.506;9.050;2022-12-10T12:17:00;16.27;;;11.40;;
13234;SDS011;6683;48.506;9.050;2022-12-10T12:20:14;14.00;;;10.23;;
13234;SDS011;6683;48.506;9.050;2022-12-10T12:23:23;11.80;;;8.67;;
13234;SDS011;6683;48.506;9.050;2022-12-10T12:26:29;12.43;;;9.23;;
13234;SDS011;6683;48.506;9.050;2022-12-10T12:29:37;14.07;;;9.90;;
13234;SDS011;6683;48.506;9.050;2022-12-10T12:32:49;12.83;;;9.20;;
13234;SDS011;6683;48.506;9.050;2022-12-10T12:36:02;9.63;;;8.53;;
13234;SDS011;6683;48.506;9.050;2022-12-10T12:39:12;13.87;;;9.70;;
13234;SDS011;6683;48.506;9.050;2022-12-10T12:42:25;12.67;;;9.80;;
13234;SDS011;6683;48.506;9.050;2022-12-10T12:45:33;14.27;;;10.13;;
13234;SDS011;6683;48.506;9.050;2022-12-10T12:48:42;12.80;;;9.77;;
13234;SDS011;6683;48.506;9.050;2022-12-10T12:51:56;11.83;;;8.77;;
13234;SDS011;6683;48.506;9.050;2022-12-10T12:55:11;10.40;;;8.80;;
13234;SDS011;6683;48.506;9.050;2022-12-10T12:58:20;11.43;;;8.80;;
13234;SDS011;6683;48.506;9.050;2022-12-10T13:01:33;11.97;;;9.07;;
13234;SDS011;6683;48.506;9.050;2022-12-10T13:04:41;9.87;;;8.20;;
13234;SDS011;6683;48.506;9.050;2022-12-10T13:07:45;11.30;;;8.67;;
13234;SDS011;6683;48.506;9.050;2022-12-10T13:11:30;11.93;;;8.20;;
13234;SDS011;6683;48.506;9.050;2022-12-10T13:14:36;8.93;;;7.27;;
13234;SDS011;6683;48.506;9.050;2022-12-10T13:18:05;12.03;;;8.00;;
13234;SDS011;6683;48.506;9.050;2022-12-10T13:21:34;10.90;;;8.43;;
13234;SDS011;6683;48.506;9.050;2022-12-10T13:28:22;12.63;;;9.53;;
13234;SDS011;6683;48.506;9.050;2022-12-10T13:31:34;11.63;;;9.00;;
13234;SDS011;6683;48.506;9.050;2022-12-10T13:34:39;12.97;;;9.90;;
13234;SDS011;6683;48.506;9.050;2022-12-10T13:37:53;13.13;;;10.00;;
13234;SDS011;6683;48.506;9.050;2022-12-10T13:41:01;13.47;;;9.27;;
13234;SDS011;6683;48.506;9.050;2022-12-10T13:44:25;13.53;;;10.13;;
13234;SDS011;6683;48.506;9.050;2022-12-10T13:47:42;13.70;;;9.53;;
13234;SDS011;6683;48.506;9.050;2022-12-10T13:50:48;14.50;;;9.73;;
13234;SDS011;6683;48.506;9.050;2022-12-10T13:54:02;13.40;;;9.73;;
13234;SDS011;6683;48.506;9.050;2022-12-10T13:57:33;13.77;;;10.13;;
13234;SDS011;6683;48.506;9.050;2022-12-10T14:00:53;12.07;;;9.20;;
13234;SDS011;6683;48.506;9.050;2022-12-10T14:07:50;12.90;;;10.00;;
13234;SDS011;6683;48.506;9.050;2022-12-10T14:10:58;13.43;;;10.23;;
13234;SDS011;6683;48.506;9.050;2022-12-10T14:14:05;14.90;;;10.37;;
13234;SDS011;6683;48.506;9.050;2022-12-10T14:17:13;15.03;;;9.80;;
13234;SDS011;6683;48.506;9.050;2022-12-10T14:20:19;11.57;;;8.97;;
13234;SDS011;6683;48.506;9.050;2022-12-10T14:23:26;13.07;;;9.80;;
13234;SDS011;6683;48.506;9.050;2022-12-10T14:26:41;14.87;;;10.97;;
13234;SDS011;6683;48.506;9.050;2022-12-10T14:29:45;12.43;;;9.70;;
13234;SDS011;6683;48.506;9.050;2022-12-10T14:32:48;13.07;;;9.47;;
13234;SDS011;6683;48.506;9.050;2022-12-10T14:35:52;13.83;;;10.03;;
13234;SDS011;6683;48.506;9.050;2022-12-10T14:38:54;11.83;;;9.07;;
13234;SDS011;6683;48.506;9.050;2022-12-10T14:41:58;13.03;;;9.60;;
13234;SDS011;6683;48.506;9.050;2022-12-10T14:45:07;13.87;;;9.30;;
13234;SDS011;6683;48.506;9.050;2022-12-10T14:48:14;12.20;;;9.13;;
13234;SDS011;6683;48.506;9.050;2022-12-10T14:51:19;12.00;;;9.40;;
13234;SDS011;6683;48.506;9.050;2022-12-10T14:54:24;13.67;;;9.23;;
13234;SDS011;6683;48.506;9.050;2022-12-10T14:57:32;13.00;;;9.57;;
13234;SDS011;6683;48.506;9.050;2022-12-10T15:00:40;15.33;;;9.27;;
13234;SDS011;6683;48.506;9.050;2022-12-10T15:03:44;12.70;;;8.87;;
13234;SDS011;6683;48.506;9.050;2022-12-10T15:06:48;14.37;;;9.20;;
13234;SDS011;6683;48.506;9.050;2022-12-10T15:09:51;13.47;;;9.10;;
13234;SDS011;6683;48.506;9.050;2022-12-10T15:12:55;12.73;;;8.63;;
13234;SDS011;6683;48.506;9.050;2022-12-10T15:15:59;13.53;;;9.50;;
13234;SDS011;6683;48.506;9.050;2022-12-10T15:19:09;11.33;;;8.67;;
13234;SDS011;6683;48.506;9.050;2022-12-10T15:22:24;14.00;;;9.20;;
13234;SDS011;6683;48.506;9.050;2022-12-10T15:25:29;11.20;;;8.50;;
13234;SDS011;6683;48.506;9.050;2022-12-10T15:28:42;12.90;;;9.10;;
13234;SDS011;6683;48.506;9.050;2022-12-10T15:31:45;11.87;;;8.60;;
13234;SDS011;6683;48.506;9.050;2022-12-10T15:34:48;11.60;;;8.57;;
13234;SDS011;6683;48.506;9.050;2022-12-10T15:37:58;12.20;;;9.07;;
13234;SDS011;6683;48.506;9.050;2022-12-10T15:44:36;13.37;;;8.80;;
13234;SDS011;6683;48.506;9.050;2022-12-10T15:47:41;14.10;;;9.00;;
13234;SDS011;6683;48.506;9.050;2022-12-10T15:50:43;10.93;;;8.00;;
13234;SDS011;6683;48.506;9.050;2022-12-10T15:53:48;13.97;;;9.13;;
13234;SDS011;6683;48.506;9.050;2022-12-10T15:56:51;14.20;;;10.30;;
13234;SDS011;6683;48.506;9.050;2022-12-10T15:59:54;14.43;;;9.80;;
13234;SDS011;6683;48.506;9.050;2022-12-10T16:03:00;13.87;;;9.50;;
13234;SDS011;6683;48.506;9.050;2022-12-10T16:06:04;13.23;;;9.37;;
13234;SDS011;6683;48.506;9.050;2022-12-10T16:09:07;13.93;;;9.77;;
13234;SDS011;6683;48.506;9.050;2022-12-10T16:12:10;13.60;;;9.37;;
13234;SDS011;6683;48.506;9.050;2022-12-10T16:15:15;12.87;;;9.00;;
13234;SDS011;6683;48.506;9.050;2022-12-10T16:18:22;14.53;;;9.70;;
13234;SDS011;6683;48.506;9.050;2022-12-10T16:21:25;15.00;;;10.37;;
13234;SDS011;6683;48.506;9.050;2022-12-10T16:24:27;14.37;;;8.97;;
13234;SDS011;6683;48.506;9.050;2022-12-10T16:27:29;12.73;;;9.67;;
13234;SDS011;6683;48.506;9.050;2022-12-10T16:30:36;14.57;;;10.00;;
13234;SDS011;6683;48.506;9.050;2022-12-10T16:33:43;12.03;;;9.10;;
13234;SDS011;6683;48.506;9.050;2022-12-10T16:36:46;14.03;;;10.57;;
13234;SDS011;6683;48.506;9.050;2022-12-10T16:39:49;14.70;;;9.93;;
13234;SDS011;6683;48.506;9.050;2022-12-10T16:42:52;12.53;;;9.00;;
13234;SDS011;6683;48.506;9.050;2022-12-10T16:45:54;12.77;;;9.37;;
13234;SDS011;6683;48.506;9.050;2022-12-10T16:48:59;12.33;;;9.10;;
13234;SDS011;6683;48.506;9.050;2022-12-10T16:52:01;12.67;;;8.63;;
13234;SDS011;6683;48.506;9.050;2022-12-10T16:55:04;11.93;;;8.50;;
13234;SDS011;6683;48.506;9.050;2022-12-10T16:58:08;13.77;;;9.97;;
13234;SDS011;6683;48.506;9.050;2022-12-10T17:01:16;13.90;;;9.00;;
13234;SDS011;6683;48.506;9.050;2022-12-10T17:04:22;15.37;;;10.97;;
13234;SDS011;6683;48.506;9.050;2022-12-10T17:07:25;14.20;;;9.70;;
13234;SDS011;6683;48.506;9.050;2022-12-10T17:10:27;12.33;;;9.23;;
13234;SDS011;6683;48.506;9.050;2022-12-10T17:13:47;13.33;;;9.63;;
13234;SDS011;6683;48.506;9.050;2022-12-10T17:16:51;12.40;;;8.27;;
13234;SDS011;6683;48.506;9.050;2022-12-10T17:19:57;12.10;;;8.73;;
13234;SDS011;6683;48.506;9.050;2022-12-10T17:22:59;10.50;;;8.03;;
13234;SDS011;6683;48.506;9.050;2022-12-10T17:26:01;12.43;;;8.80;;
13234;SDS011;6683;48.506;9.050;2022-12-10T17:29:05;12.47;;;8.33;;
13234;SDS011;6683;48.506;9.050;2022-12-10T17:32:14;12.23;;;9.50;;
13234;SDS011;6683;48.506;9.050;2022-12-10T17:35:18;11.40;;;8.77;;
13234;SDS011;6683;48.506;9.050;2022-12-10T17:38:21;14.10;;;9.37;;
13234;SDS011;6683;48.506;9.050;2022-12-10T17:41:25;12.73;;;9.00;;
13234;SDS011;6683;48.506;9.050;2022-12-10T17:44:28;13.83;;;9.23;;
13234;SDS011;6683;48.506;9.050;2022-12-10T17:47:30;12.80;;;8.70;;
13234;SDS011;6683;48.506;9.050;2022-12-10T17:50:37;11.80;;;8.77;;
13234;SDS011;6683;48.506;9.050;2022-12-10T17:53:40;11.93;;;8.57;;
13234;SDS011;6683;48.506;9.050;2022-12-10T17:56:43;13.10;;;8.93;;
13234;SDS011;6683;48.506;9.050;2022-12-10T17:59:46;14.97;;;9.23;;
13234;SDS011;6683;48.506;9.050;2022-12-10T18:02:48;11.50;;;8.47;;
13234;SDS011;6683;48.506;9.050;2022-12-10T18:05:53;12.23;;;8.87;;
13234;SDS011;6683;48.506;9.050;2022-12-10T18:08:56;13.33;;;9.20;;
13234;SDS011;6683;48.506;9.050;2022-12-10T18:12:00;12.27;;;8.43;;
13234;SDS011;6683;48.506;9.050;2022-12-10T18:15:03;11.50;;;8.47;;
13234;SDS011;6683;48.506;9.050;2022-12-10T18:18:07;10.93;;;8.37;;
13234;SDS011;6683;48.506;9.050;2022-12-10T18:21:14;13.43;;;9.40;;
13234;SDS011;6683;48.506;9.050;2022-12-10T18:24:17;12.47;;;8.90;;
13234;SDS011;6683;48.506;9.050;2022-12-10T18:27:19;12.50;;;8.67;;
13234;SDS011;6683;48.506;9.050;2022-12-10T18:30:23;11.77;;;8.93;;
13234;SDS011;6683;48.506;9.050;2022-12-10T18:33:25;13.30;;;9.73;;
13234;SDS011;6683;48.506;9.050;2022-12-10T18:36:30;13.53;;;9.60;;
13234;SDS011;6683;48.506;9.050;2022-12-10T18:39:34;13.00;;;9.10;;
13234;SDS011;6683;48.506;9.050;2022-12-10T18:42:37;9.90;;;8.37;;
13234;SDS011;6683;48.506;9.050;2022-12-10T18:45:39;13.17;;;8.97;;